Time;durP1;ratioP1;P1;durP2;ratioP2;P2;SDS_P1;SDS_P2;PMS_P1;PMS_P2;Temp;Humidity;BMP_temperature;BMP_pressure;BME280_temperature;BME280_humidity;BME280_pressure;Samples;Min_cycle;Max_cycle;Signal;HPM_P1;HPM_P2
2023/05/25 00:00:17;;;;;;;29.13;9.55;;;8.90;99.90;;;;;;5108008;28;20023;-59
2023/05/25 00:02:45;;;;;;;26.60;10.43;;;8.80;99.90;;;;;;5110643;28;20026;-58
2023/05/25 00:05:11;;;;;;;21.92;10.50;;;8.80;99.90;;;;;;5112802;27;20049;-59
2023/05/25 00:07:37;;;;;;;23.35;9.68;;;8.70;99.90;;;;;;5109861;27;20028;-60
2023/05/25 00:10:04;;;;;;;26.30;10.00;;;8.70;99.90;;;;;;5103820;28;20394;-62
2023/05/25 00:12:29;;;;;;;30.80;9.90;;;8.70;99.90;;;;;;5111769;28;20028;-58
2023/05/25 00:14:55;;;;;;;24.10;9.65;;;8.60;99.90;;;;;;5108036;28;20016;-61
2023/05/25 00:17:20;;;;;;;32.90;11.07;;;8.60;99.90;;;;;;5109314;28;20117;-59
2023/05/25 00:19:46;;;;;;;28.85;9.70;;;8.60;99.90;;;;;;5107281;28;20024;-60
2023/05/25 00:22:11;;;;;;;21.00;9.07;;;8.50;99.90;;;;;;5112365;28;20058;-57
2023/05/25 00:24:38;;;;;;;25.42;9.52;;;8.50;99.90;;;;;;5111163;28;20088;-62
2023/05/25 00:27:06;;;;;;;32.42;9.90;;;8.50;99.90;;;;;;5107231;28;20119;-60
2023/05/25 00:29:32;;;;;;;21.65;9.30;;;8.50;99.90;;;;;;5107301;28;20068;-59
2023/05/25 00:31:57;;;;;;;20.23;9.38;;;8.50;99.90;;;;;;5109258;28;20019;-61
2023/05/25 00:34:23;;;;;;;22.38;8.65;;;8.50;99.90;;;;;;5112731;28;20023;-60
2023/05/25 00:36:48;;;;;;;27.83;11.40;;;8.40;99.90;;;;;;5110260;28;20103;-60
2023/05/25 00:39:15;;;;;;;29.02;10.13;;;8.50;99.90;;;;;;5112309;28;20024;-61
2023/05/25 00:41:43;;;;;;;27.10;9.88;;;8.40;99.90;;;;;;5109020;28;20051;-61
2023/05/25 00:44:10;;;;;;;20.10;9.27;;;8.50;99.90;;;;;;5107909;28;20020;-59
2023/05/25 00:46:37;;;;;;;31.27;9.45;;;8.40;99.90;;;;;;5109194;28;20103;-59
2023/05/25 00:49:03;;;;;;;24.73;9.40;;;8.40;99.90;;;;;;5108616;28;20023;-59
2023/05/25 00:51:31;;;;;;;27.48;9.43;;;8.30;99.90;;;;;;5108057;28;20401;-60
2023/05/25 00:53:57;;;;;;;21.52;9.40;;;8.20;99.90;;;;;;5111663;28;20406;-59
2023/05/25 00:56:27;;;;;;;31.63;9.43;;;8.20;99.90;;;;;;5110287;28;20028;-57
2023/05/25 00:58:55;;;;;;;26.80;9.32;;;8.30;99.90;;;;;;5105870;28;20073;-59
2023/05/25 01:01:22;;;;;;;26.67;9.55;;;8.40;99.90;;;;;;5104834;28;20114;-59
2023/05/25 01:03:53;;;;;;;26.02;9.60;;;8.30;99.90;;;;;;5108251;28;20499;-60
2023/05/25 01:06:21;;;;;;;21.83;9.75;;;8.20;99.90;;;;;;5103001;28;20047;-61
2023/05/25 01:08:51;;;;;;;24.95;9.73;;;8.20;99.90;;;;;;5102756;28;20031;-59
2023/05/25 01:11:21;;;;;;;30.98;10.35;;;8.20;99.90;;;;;;5103392;28;20031;-61
2023/05/25 01:13:51;;;;;;;28.10;9.77;;;8.20;99.90;;;;;;5107389;28;20077;-59
2023/05/25 01:16:18;;;;;;;31.67;10.27;;;8.30;99.90;;;;;;5104111;28;20042;-57
2023/05/25 01:18:44;;;;;;;26.08;9.52;;;8.40;99.90;;;;;;5108494;28;20035;-59
2023/05/25 01:21:20;;;;;;;23.60;9.65;;;8.30;99.90;;;;;;5109420;28;20019;-56
2023/05/25 01:24:02;;;;;;;23.80;9.60;;;8.30;99.90;;;;;;5107670;28;20816;-60
2023/05/25 01:26:33;;;;;;;28.10;8.98;;;8.30;99.90;;;;;;5107492;28;20054;-60
2023/05/25 01:29:00;;;;;;;23.80;8.70;;;8.30;99.90;;;;;;5108915;28;20027;-62
2023/05/25 01:31:27;;;;;;;27.10;10.10;;;8.30;99.90;;;;;;5107196;28;20028;-60
2023/05/25 01:33:54;;;;;;;17.92;9.32;;;8.20;99.90;;;;;;5105937;28;20020;-60
2023/05/25 01:36:19;;;;;;;32.05;9.77;;;8.20;99.90;;;;;;5106768;28;20362;-55
2023/05/25 01:38:45;;;;;;;33.20;11.05;;;8.20;99.90;;;;;;5107084;28;20038;-61
2023/05/25 01:41:11;;;;;;;28.90;9.43;;;8.10;99.90;;;;;;5108868;28;20042;-59
2023/05/25 01:43:36;;;;;;;20.23;10.40;;;8.10;99.90;;;;;;5105947;28;20039;-56
2023/05/25 01:46:36;;;;;;;15.50;8.68;;;8.10;99.90;;;;;;5106819;28;20100;-58
2023/05/25 01:49:36;;;;;;;26.17;10.20;;;8.20;99.90;;;;;;5107186;28;20024;-60
2023/05/25 01:52:18;;;;;;;23.50;10.07;;;8.10;99.90;;;;;;5104395;28;20108;-61
2023/05/25 01:55:21;;;;;;;27.55;10.63;;;8.00;99.90;;;;;;5106954;28;20031;-61
2023/05/25 01:57:49;;;;;;;23.90;9.27;;;7.90;99.90;;;;;;5051889;28;20035;-57
2023/05/25 02:00:18;;;;;;;24.35;10.30;;;7.90;99.90;;;;;;5104448;28;20020;-57
2023/05/25 02:02:46;;;;;;;24.75;11.27;;;7.80;99.90;;;;;;5109059;28;20389;-61
2023/05/25 02:05:12;;;;;;;27.27;11.57;;;7.70;99.90;;;;;;5103877;28;20027;-60
2023/05/25 02:07:38;;;;;;;28.65;11.75;;;7.70;99.90;;;;;;5106784;28;20040;-60
2023/05/25 02:10:04;;;;;;;26.27;12.18;;;7.70;99.90;;;;;;5105902;28;20031;-58
2023/05/25 02:12:30;;;;;;;23.33;10.68;;;7.70;99.90;;;;;;5107182;28;20422;-60
2023/05/25 02:14:55;;;;;;;22.58;11.10;;;7.50;99.90;;;;;;5100522;28;20062;-58
2023/05/25 02:17:21;;;;;;;38.75;11.88;;;7.50;99.90;;;;;;5102520;28;20027;-58
2023/05/25 02:19:48;;;;;;;27.08;11.63;;;7.50;99.90;;;;;;5103248;28;20016;-59
2023/05/25 02:22:14;;;;;;;22.92;11.73;;;7.70;99.90;;;;;;5107604;28;20015;-59
2023/05/25 02:24:39;;;;;;;25.25;10.70;;;7.80;99.90;;;;;;5105904;28;20036;-57
2023/05/25 02:27:06;;;;;;;30.60;10.10;;;7.70;99.90;;;;;;5107873;28;20157;-61
2023/05/25 02:29:31;;;;;;;23.70;10.70;;;7.60;99.90;;;;;;5103285;28;20110;-61
2023/05/25 02:31:57;;;;;;;27.58;11.13;;;7.60;99.90;;;;;;5105119;28;20114;-59
2023/05/25 02:34:23;;;;;;;29.15;11.38;;;7.50;99.90;;;;;;5109934;28;20030;-60
2023/05/25 02:36:49;;;;;;;31.55;11.82;;;7.50;99.90;;;;;;5111870;27;20027;-59
2023/05/25 02:39:15;;;;;;;40.13;11.77;;;7.50;99.90;;;;;;5112708;28;20034;-62
2023/05/25 02:41:40;;;;;;;26.25;11.82;;;7.50;99.90;;;;;;5111448;28;20035;-62
2023/05/25 02:44:06;;;;;;;31.42;12.07;;;7.40;99.90;;;;;;5107327;28;20031;-61
2023/05/25 02:46:32;;;;;;;22.85;11.07;;;7.40;99.90;;;;;;5111218;28;20024;-60
2023/05/25 02:48:58;;;;;;;30.67;10.88;;;7.30;99.90;;;;;;5111194;28;20106;-61
2023/05/25 02:51:24;;;;;;;29.77;12.90;;;7.30;99.90;;;;;;5112851;28;20031;-60
2023/05/25 02:53:50;;;;;;;29.98;13.48;;;7.40;99.90;;;;;;5110842;28;20032;-59
2023/05/25 02:56:16;;;;;;;24.85;11.80;;;7.30;99.90;;;;;;5109341;28;20032;-60
2023/05/25 02:58:41;;;;;;;26.30;11.88;;;7.40;99.90;;;;;;5109994;28;20055;-60
2023/05/25 03:01:09;;;;;;;36.15;12.88;;;7.30;99.90;;;;;;5111721;28;20055;-57
2023/05/25 03:03:35;;;;;;;32.22;11.85;;;7.20;99.90;;;;;;5111674;28;20028;-57
2023/05/25 03:06:02;;;;;;;25.08;11.20;;;7.30;99.90;;;;;;5111663;28;20027;-56
2023/05/25 03:08:28;;;;;;;31.67;12.65;;;7.30;99.90;;;;;;5110401;27;20051;-60
2023/05/25 03:10:54;;;;;;;33.33;10.80;;;7.30;99.90;;;;;;5111262;27;20701;-59
2023/05/25 03:13:20;;;;;;;33.85;12.18;;;7.40;99.90;;;;;;5111764;28;20012;-62
2023/05/25 03:15:45;;;;;;;32.55;12.45;;;7.20;99.90;;;;;;5110620;28;20131;-60
2023/05/25 03:18:11;;;;;;;24.00;10.98;;;7.20;99.90;;;;;;5111865;28;20036;-61
2023/05/25 03:20:36;;;;;;;31.10;11.40;;;7.20;99.90;;;;;;5111742;28;20497;-59
2023/05/25 03:23:02;;;;;;;29.92;12.18;;;7.10;99.90;;;;;;5109816;28;20023;-61
2023/05/25 03:25:27;;;;;;;32.10;11.68;;;7.10;99.90;;;;;;5112809;27;20032;-60
2023/05/25 03:27:53;;;;;;;32.15;11.60;;;7.20;99.90;;;;;;5111139;28;20019;-61
2023/05/25 03:30:20;;;;;;;22.48;12.00;;;7.10;99.90;;;;;;5109155;28;20023;-60
2023/05/25 03:32:46;;;;;;;31.15;11.10;;;7.20;99.90;;;;;;5110127;28;20421;-61
2023/05/25 03:35:11;;;;;;;24.85;10.95;;;7.10;99.90;;;;;;5111240;28;20030;-61
2023/05/25 03:37:37;;;;;;;24.75;11.65;;;7.20;99.90;;;;;;5111357;28;20039;-60
2023/05/25 03:40:03;;;;;;;28.02;12.50;;;7.10;99.90;;;;;;5109742;28;20084;-59
2023/05/25 03:42:30;;;;;;;34.15;11.32;;;7.10;99.90;;;;;;5108920;28;20048;-59
2023/05/25 03:44:55;;;;;;;29.13;11.95;;;7.10;99.90;;;;;;5107831;28;20045;-58
2023/05/25 03:47:21;;;;;;;24.52;12.25;;;7.00;99.90;;;;;;5111283;28;20106;-58
2023/05/25 03:49:46;;;;;;;26.65;12.18;;;7.10;99.90;;;;;;5110950;28;20027;-61
2023/05/25 03:52:12;;;;;;;29.85;12.15;;;7.20;99.90;;;;;;5108835;28;21796;-61
2023/05/25 03:54:37;;;;;;;28.98;12.18;;;7.10;99.90;;;;;;5109768;28;20038;-60
2023/05/25 03:57:03;;;;;;;25.30;11.60;;;7.10;99.90;;;;;;5109921;28;20024;-62
2023/05/25 03:59:29;;;;;;;23.30;11.90;;;7.10;99.90;;;;;;5110342;28;20031;-61
2023/05/25 04:01:55;;;;;;;27.65;12.90;;;7.10;99.90;;;;;;5106194;28;20031;-61
2023/05/25 04:04:20;;;;;;;25.55;11.55;;;7.20;99.90;;;;;;5109315;28;20043;-62
2023/05/25 04:06:47;;;;;;;25.95;11.10;;;7.30;99.90;;;;;;5110099;28;20035;-60
2023/05/25 04:09:14;;;;;;;24.42;12.07;;;7.30;99.90;;;;;;5112096;28;20016;-59
2023/05/25 04:11:40;;;;;;;28.00;12.48;;;7.30;99.90;;;;;;5108337;28;20482;-62
2023/05/25 04:14:05;;;;;;;34.00;12.45;;;7.30;99.90;;;;;;5105783;28;20031;-61
2023/05/25 04:16:31;;;;;;;26.00;12.15;;;7.40;99.90;;;;;;5105749;28;20030;-62
2023/05/25 04:18:56;;;;;;;30.27;13.27;;;7.40;99.90;;;;;;5106568;28;20531;-61
2023/05/25 04:21:22;;;;;;;34.63;12.80;;;7.60;99.90;;;;;;5105818;28;20459;-61
2023/05/25 04:23:48;;;;;;;32.45;13.63;;;7.70;99.90;;;;;;5108021;28;20057;-60
2023/05/25 04:26:15;;;;;;;36.97;14.43;;;7.90;99.90;;;;;;5107945;28;20028;-61
2023/05/25 04:28:41;;;;;;;63.90;15.63;;;8.00;99.90;;;;;;5111963;28;20024;-59
2023/05/25 04:31:07;;;;;;;38.03;13.52;;;8.10;99.90;;;;;;5109583;28;20035;-62
2023/05/25 04:33:37;;;;;;;37.95;14.63;;;8.10;99.90;;;;;;5105636;28;20102;-62
2023/05/25 04:36:03;;;;;;;34.33;14.43;;;8.30;99.90;;;;;;5108052;28;20126;-59
2023/05/25 04:38:29;;;;;;;37.08;14.43;;;8.20;99.90;;;;;;5109778;28;20620;-58
2023/05/25 04:40:56;;;;;;;32.20;13.68;;;8.20;99.90;;;;;;5108402;28;20024;-59
2023/05/25 04:43:24;;;;;;;29.20;12.65;;;8.20;99.90;;;;;;5110421;28;20173;-61
2023/05/25 04:45:51;;;;;;;27.35;14.05;;;8.20;99.90;;;;;;5104820;27;20084;-61
2023/05/25 04:48:16;;;;;;;32.65;13.00;;;8.30;99.90;;;;;;5108592;28;20024;-61
2023/05/25 04:50:42;;;;;;;31.13;14.45;;;8.30;99.90;;;;;;5105258;28;20019;-61
2023/05/25 04:53:08;;;;;;;32.95;13.13;;;8.40;99.90;;;;;;5108653;28;20035;-56
2023/05/25 04:55:33;;;;;;;41.03;13.27;;;8.50;99.90;;;;;;5103897;28;20037;-55
2023/05/25 04:57:59;;;;;;;31.65;13.18;;;8.50;99.90;;;;;;5104100;27;20028;-59
2023/05/25 05:00:25;;;;;;;31.55;13.80;;;8.50;99.90;;;;;;5103287;28;20249;-57
2023/05/25 05:02:50;;;;;;;35.45;12.98;;;8.60;99.90;;;;;;5102986;28;20035;-56
2023/05/25 05:05:16;;;;;;;30.50;12.95;;;8.70;99.90;;;;;;5105306;28;20027;-56
2023/05/25 05:07:42;;;;;;;32.53;12.75;;;8.80;99.90;;;;;;5109877;28;20481;-53
2023/05/25 05:10:08;;;;;;;40.20;14.93;;;8.80;99.90;;;;;;5106063;27;20425;-55
2023/05/25 05:12:34;;;;;;;51.17;14.93;;;8.90;99.90;;;;;;5103488;28;20035;-56
2023/05/25 05:15:00;;;;;;;37.53;14.32;;;9.00;99.90;;;;;;5104286;28;20481;-59
2023/05/25 05:17:26;;;;;;;41.95;16.40;;;9.20;99.90;;;;;;5104394;28;20054;-59
2023/05/25 05:19:52;;;;;;;45.25;14.68;;;9.30;99.90;;;;;;5103224;27;20028;-56
2023/05/25 05:22:18;;;;;;;36.63;14.45;;;9.30;99.90;;;;;;5109492;28;20136;-58
2023/05/25 05:24:44;;;;;;;51.00;16.20;;;9.50;99.90;;;;;;5107346;28;20402;-54
2023/05/25 05:27:09;;;;;;;38.88;13.73;;;9.60;99.90;;;;;;5108734;28;20047;-57
2023/05/25 05:29:36;;;;;;;40.85;13.45;;;9.70;99.90;;;;;;5104345;28;20084;-59
2023/05/25 05:32:02;;;;;;;39.40;13.23;;;9.80;99.90;;;;;;5106751;28;20099;-58
2023/05/25 05:34:27;;;;;;;29.77;13.18;;;9.90;99.90;;;;;;5107937;28;20019;-57
2023/05/25 05:36:53;;;;;;;29.35;12.45;;;9.90;99.90;;;;;;5105359;28;20016;-61
2023/05/25 05:39:18;;;;;;;34.50;13.25;;;9.90;99.90;;;;;;5108077;28;20023;-58
2023/05/25 05:41:44;;;;;;;34.67;12.50;;;10.00;99.90;;;;;;5103546;28;20049;-56
2023/05/25 05:44:11;;;;;;;30.58;13.82;;;10.00;99.90;;;;;;5110074;28;20061;-54
2023/05/25 05:46:37;;;;;;;33.80;12.88;;;10.20;99.90;;;;;;5110428;28;20069;-58
2023/05/25 05:49:02;;;;;;;32.85;13.15;;;10.30;99.90;;;;;;5106517;28;20051;-58
2023/05/25 05:51:28;;;;;;;40.40;12.60;;;10.40;99.90;;;;;;5110158;28;20066;-57
2023/05/25 05:53:54;;;;;;;31.15;13.57;;;10.50;99.90;;;;;;5109550;28;20056;-59
2023/05/25 05:56:20;;;;;;;33.25;12.68;;;10.60;99.90;;;;;;5110103;28;20034;-58
2023/05/25 05:58:48;;;;;;;25.88;13.02;;;10.70;99.90;;;;;;5107139;28;20402;-58
2023/05/25 06:01:17;;;;;;;33.28;13.00;;;10.80;99.90;;;;;;5110593;28;20031;-61
2023/05/25 06:03:44;;;;;;;32.67;12.55;;;11.00;99.90;;;;;;5110484;28;20431;-59
2023/05/25 06:06:10;;;;;;;29.98;13.77;;;11.10;99.90;;;;;;5109357;28;20016;-58
2023/05/25 06:08:35;;;;;;;34.15;13.00;;;11.20;99.90;;;;;;5107706;28;20408;-57
2023/05/25 06:11:01;;;;;;;39.42;12.52;;;11.20;99.90;;;;;;5108938;28;20103;-60
2023/05/25 06:13:26;;;;;;;28.50;11.60;;;11.20;99.90;;;;;;5111669;28;20477;-58
2023/05/25 06:15:52;;;;;;;32.50;11.73;;;11.30;99.90;;;;;;5107786;28;20028;-58
2023/05/25 06:18:18;;;;;;;32.05;11.98;;;11.40;99.90;;;;;;5110060;28;20020;-58
2023/05/25 06:20:43;;;;;;;27.80;11.57;;;11.40;99.90;;;;;;5107218;28;20397;-58
2023/05/25 06:23:11;;;;;;;34.53;13.48;;;11.30;99.90;;;;;;5105818;28;20517;-60
2023/05/25 06:25:36;;;;;;;34.50;13.23;;;11.40;99.90;;;;;;5107662;28;20028;-60
2023/05/25 06:28:02;;;;;;;37.78;13.25;;;11.50;99.90;;;;;;5107463;28;20028;-55
2023/05/25 06:30:28;;;;;;;35.47;12.73;;;11.60;99.90;;;;;;5108911;28;20032;-59
2023/05/25 06:32:53;;;;;;;31.55;12.32;;;11.60;99.90;;;;;;5108545;28;20527;-57
2023/05/25 06:35:19;;;;;;;39.25;11.85;;;11.70;99.90;;;;;;5108883;28;20027;-57
2023/05/25 06:37:46;;;;;;;35.45;13.13;;;11.80;99.90;;;;;;5108657;28;20034;-57
2023/05/25 06:40:12;;;;;;;35.33;12.70;;;11.80;99.90;;;;;;5108019;28;20077;-54
2023/05/25 06:42:37;;;;;;;32.38;12.60;;;11.90;99.90;;;;;;5108650;28;20039;-57
2023/05/25 06:45:04;;;;;;;34.47;12.30;;;11.90;99.90;;;;;;5106954;28;20050;-59
2023/05/25 06:47:30;;;;;;;33.50;13.00;;;11.90;99.90;;;;;;5109133;28;20020;-59
2023/05/25 06:49:56;;;;;;;37.67;12.55;;;12.00;99.90;;;;;;5106611;28;20022;-60
2023/05/25 06:52:21;;;;;;;40.58;12.43;;;12.00;99.90;;;;;;5108114;28;20480;-55
2023/05/25 06:54:47;;;;;;;33.78;12.40;;;12.10;99.90;;;;;;5107883;28;20119;-61
2023/05/25 06:57:12;;;;;;;41.17;12.95;;;12.20;99.90;;;;;;5107529;28;20036;-58
2023/05/25 06:59:38;;;;;;;34.17;13.10;;;12.20;99.90;;;;;;5107915;28;20036;-57
2023/05/25 07:02:03;;;;;;;44.88;12.77;;;12.30;99.90;;;;;;5103531;28;20447;-57
2023/05/25 07:04:29;;;;;;;33.10;11.30;;;12.40;99.90;;;;;;5108438;28;20035;-58
2023/05/25 07:06:54;;;;;;;40.38;12.73;;;12.40;99.90;;;;;;5108360;28;20034;-57
2023/05/25 07:09:21;;;;;;;26.02;11.68;;;12.40;99.90;;;;;;5109005;28;20035;-58
2023/05/25 07:11:46;;;;;;;37.80;12.13;;;12.50;99.90;;;;;;5106861;28;20089;-58
2023/05/25 07:14:12;;;;;;;27.02;11.15;;;12.60;99.90;;;;;;5108542;28;20140;-56
2023/05/25 07:16:37;;;;;;;33.08;12.15;;;12.60;99.90;;;;;;5106915;28;20028;-56
2023/05/25 07:19:03;;;;;;;32.72;13.30;;;12.70;99.90;;;;;;5110455;28;20488;-59
2023/05/25 07:21:32;;;;;;;34.42;11.52;;;12.80;99.90;;;;;;5111551;28;20569;-56
2023/05/25 07:23:57;;;;;;;24.73;10.30;;;12.80;99.90;;;;;;5112625;28;20035;-57
2023/05/25 07:26:24;;;;;;;29.02;12.15;;;12.90;99.90;;;;;;5112050;28;20451;-61
2023/05/25 07:28:50;;;;;;;44.60;13.18;;;13.00;99.90;;;;;;5111942;28;20028;-58
2023/05/25 07:31:16;;;;;;;31.30;12.80;;;13.20;99.90;;;;;;5110184;28;20702;-60
2023/05/25 07:33:42;;;;;;;30.35;11.95;;;13.20;99.90;;;;;;5109479;28;20419;-60
2023/05/25 07:36:08;;;;;;;23.85;11.85;;;13.30;99.90;;;;;;5112235;28;20046;-59
2023/05/25 07:38:34;;;;;;;35.67;11.40;;;13.30;99.90;;;;;;5109676;28;20056;-56
2023/05/25 07:41:00;;;;;;;23.10;10.80;;;13.40;99.90;;;;;;5109105;28;20043;-56
2023/05/25 07:43:26;;;;;;;25.88;11.18;;;13.50;99.90;;;;;;5107643;28;20016;-59
2023/05/25 07:45:51;;;;;;;33.70;11.43;;;13.50;99.90;;;;;;5110829;28;20473;-58
2023/05/25 07:48:17;;;;;;;38.58;10.75;;;13.60;99.90;;;;;;5110822;28;20043;-57
2023/05/25 07:50:42;;;;;;;30.73;10.45;;;13.80;99.90;;;;;;5109147;28;20074;-57
2023/05/25 07:53:08;;;;;;;37.10;12.50;;;13.90;99.90;;;;;;5109165;28;20028;-58
2023/05/25 07:55:33;;;;;;;39.60;12.50;;;13.90;99.90;;;;;;5102111;28;20852;-57
2023/05/25 07:57:59;;;;;;;24.50;10.43;;;14.00;99.90;;;;;;5109980;28;20032;-58
2023/05/25 08:00:25;;;;;;;34.90;12.40;;;14.00;99.90;;;;;;5107034;28;20032;-54
2023/05/25 08:02:50;;;;;;;35.78;11.32;;;14.10;99.90;;;;;;5108202;28;20032;-61
2023/05/25 08:05:16;;;;;;;30.02;10.93;;;14.20;99.90;;;;;;5105875;28;20439;-59
2023/05/25 08:07:41;;;;;;;28.15;11.48;;;14.30;99.90;;;;;;5106408;28;20461;-60
2023/05/25 08:10:08;;;;;;;31.48;10.77;;;14.40;99.90;;;;;;5106701;28;20034;-56
2023/05/25 08:12:33;;;;;;;27.70;10.60;;;14.30;99.90;;;;;;5109156;28;20035;-58
2023/05/25 08:14:59;;;;;;;26.42;10.45;;;14.30;99.90;;;;;;5108192;28;20397;-60
2023/05/25 08:17:25;;;;;;;25.58;9.48;;;14.50;99.90;;;;;;5108197;28;20027;-59
2023/05/25 08:19:51;;;;;;;25.95;9.25;;;14.60;99.90;;;;;;5109428;28;20532;-55
2023/05/25 08:22:16;;;;;;;29.45;9.95;;;14.70;99.90;;;;;;5110183;28;20145;-58
2023/05/25 08:24:42;;;;;;;21.45;8.95;;;14.90;99.90;;;;;;5106582;28;20038;-56
2023/05/25 08:27:07;;;;;;;27.92;9.95;;;15.00;99.90;;;;;;5106389;28;20145;-57
2023/05/25 08:29:33;;;;;;;25.88;8.93;;;15.10;99.90;;;;;;5098059;28;20028;-60
2023/05/25 08:31:58;;;;;;;24.33;9.35;;;15.20;99.90;;;;;;5107822;28;20043;-58
2023/05/25 08:34:24;;;;;;;20.67;9.88;;;15.30;99.90;;;;;;5104331;28;20098;-56
2023/05/25 08:36:49;;;;;;;29.70;10.57;;;15.30;99.90;;;;;;5108865;28;20438;-58
2023/05/25 08:39:15;;;;;;;27.35;9.05;;;15.40;99.90;;;;;;5103372;28;20028;-58
2023/05/25 08:41:43;;;;;;;25.75;10.15;;;15.40;99.90;;;;;;5105730;28;20027;-56
2023/05/25 08:44:09;;;;;;;34.15;10.07;;;15.50;99.90;;;;;;5103933;28;20020;-59
2023/05/25 08:46:35;;;;;;;25.92;9.65;;;15.70;99.90;;;;;;5101203;28;20042;-59
2023/05/25 08:49:13;;;;;;;19.05;9.38;;;16.00;99.90;;;;;;5106196;28;20051;-56
2023/05/25 08:51:48;;;;;;;25.42;13.30;;;16.10;99.90;;;;;;5105477;28;20036;-60
2023/05/25 08:54:36;;;;;;;30.38;12.52;;;15.90;99.90;;;;;;5102491;28;20027;-58
2023/05/25 08:57:18;;;;;;;29.20;12.63;;;15.80;99.90;;;;;;5104469;28;20028;-59
2023/05/25 09:00:01;;;;;;;36.25;13.00;;;15.80;99.90;;;;;;5105532;28;20110;-58
2023/05/25 09:02:43;;;;;;;29.75;12.98;;;15.80;99.90;;;;;;5105117;28;20039;-58
2023/05/25 09:05:09;;;;;;;17.00;8.77;;;15.90;99.90;;;;;;5102420;28;20024;-59
2023/05/25 09:07:35;;;;;;;29.30;10.73;;;15.90;99.90;;;;;;5108547;28;20424;-58
2023/05/25 09:10:01;;;;;;;24.75;10.95;;;16.00;99.90;;;;;;5103754;28;20051;-57
2023/05/25 09:12:29;;;;;;;31.20;8.38;;;16.10;99.90;;;;;;5104451;27;20380;-57
2023/05/25 09:14:57;;;;;;;23.30;9.25;;;16.10;99.90;;;;;;5105850;28;20035;-56
2023/05/25 09:17:22;;;;;;;22.55;9.40;;;16.20;99.90;;;;;;5108367;28;20038;-56
2023/05/25 09:19:48;;;;;;;22.63;9.13;;;16.20;99.90;;;;;;5105132;28;20541;-59
2023/05/25 09:22:14;;;;;;;21.10;9.32;;;16.30;99.90;;;;;;5106466;28;20106;-58
2023/05/25 09:24:40;;;;;;;18.83;7.82;;;16.30;99.90;;;;;;5104192;28;20110;-56
2023/05/25 09:27:10;;;;;;;22.85;9.02;;;16.40;99.90;;;;;;5105229;28;20525;-58
2023/05/25 09:29:35;;;;;;;23.52;8.68;;;16.40;99.90;;;;;;5106842;28;20613;-58
2023/05/25 09:32:04;;;;;;;21.88;8.50;;;16.40;99.90;;;;;;5103351;28;20042;-56
2023/05/25 09:34:34;;;;;;;21.15;7.63;;;16.30;99.90;;;;;;5104323;28;20032;-59
2023/05/25 09:37:03;;;;;;;19.40;8.35;;;16.30;99.90;;;;;;5104754;28;20034;-58
2023/05/25 09:39:29;;;;;;;22.13;7.88;;;16.40;99.90;;;;;;5103227;28;20506;-59
2023/05/25 09:41:56;;;;;;;23.27;8.15;;;16.70;99.90;;;;;;5100320;28;20110;-59
2023/05/25 09:44:22;;;;;;;24.90;8.55;;;16.90;99.90;;;;;;5106975;28;20034;-58
2023/05/25 09:46:47;;;;;;;17.67;7.97;;;17.10;99.90;;;;;;5103358;28;20032;-59
2023/05/25 09:49:13;;;;;;;21.35;7.65;;;17.30;99.90;;;;;;5105596;28;20040;-56
2023/05/25 09:51:39;;;;;;;19.90;8.00;;;17.30;99.90;;;;;;5104310;28;20039;-59
2023/05/25 09:54:08;;;;;;;20.80;9.02;;;17.20;99.90;;;;;;5106987;28;20202;-58
2023/05/25 09:56:34;;;;;;;22.00;8.20;;;17.20;99.90;;;;;;5103090;28;20153;-60
2023/05/25 09:59:00;;;;;;;21.88;8.80;;;17.10;99.90;;;;;;5106899;28;20054;-60
2023/05/25 10:01:26;;;;;;;19.77;9.07;;;17.30;99.90;;;;;;5100918;28;20031;-60
2023/05/25 10:03:55;;;;;;;18.20;8.30;;;17.30;99.90;;;;;;5101414;28;20449;-59
2023/05/25 10:06:21;;;;;;;28.77;8.25;;;17.50;99.90;;;;;;5107540;28;20102;-58
2023/05/25 10:08:48;;;;;;;23.83;8.70;;;17.50;99.90;;;;;;5100118;28;20027;-54
2023/05/25 10:11:15;;;;;;;23.70;7.78;;;17.80;99.90;;;;;;5103304;28;20520;-57
2023/05/25 10:13:43;;;;;;;22.65;8.35;;;17.90;99.90;;;;;;5104183;28;20054;-53
2023/05/25 10:16:12;;;;;;;18.50;8.63;;;18.00;99.90;;;;;;5104958;28;20034;-53
2023/05/25 10:18:47;;;;;;;20.45;8.27;;;18.20;99.90;;;;;;5106837;28;20023;-54
2023/05/25 10:21:15;;;;;;;22.25;7.35;;;18.00;99.90;;;;;;5105768;28;20703;-58
2023/05/25 10:23:46;;;;;;;18.38;7.78;;;18.00;99.90;;;;;;5102362;28;20366;-57
2023/05/25 10:26:17;;;;;;;21.40;8.52;;;18.20;99.90;;;;;;5105119;28;20019;-53
2023/05/25 10:28:44;;;;;;;19.35;8.50;;;18.30;99.90;;;;;;5106806;28;20027;-57
2023/05/25 10:31:11;;;;;;;14.25;7.18;;;18.30;99.90;;;;;;5106360;28;20031;-55
2023/05/25 10:33:36;;;;;;;15.75;7.47;;;18.20;99.90;;;;;;5103935;28;20024;-57
2023/05/25 10:36:03;;;;;;;17.30;8.38;;;18.10;99.90;;;;;;5105950;28;20027;-54
2023/05/25 10:38:30;;;;;;;18.38;7.95;;;18.30;99.90;;;;;;5104709;28;20039;-55
2023/05/25 10:40:58;;;;;;;20.08;8.75;;;18.60;99.90;;;;;;5106468;28;20381;-59
2023/05/25 10:43:25;;;;;;;21.92;8.07;;;18.70;99.90;;;;;;5106792;28;20030;-57
2023/05/25 10:45:50;;;;;;;23.10;9.43;;;18.50;99.90;;;;;;5100829;28;20059;-56
2023/05/25 10:48:16;;;;;;;17.98;8.55;;;18.30;99.90;;;;;;5105787;28;20097;-55
2023/05/25 10:50:48;;;;;;;19.27;9.68;;;18.40;99.90;;;;;;5105412;28;20126;-53
2023/05/25 10:53:15;;;;;;;22.42;8.82;;;18.50;99.90;;;;;;5107345;28;20572;-55
2023/05/25 10:56:04;;;;;;;17.73;8.45;;;18.60;99.90;;;;;;5110644;28;20017;-57
2023/05/25 10:58:31;;;;;;;18.58;8.30;;;18.80;99.90;;;;;;5103601;28;20389;-53
2023/05/25 11:01:02;;;;;;;19.42;7.60;;;19.30;99.90;;;;;;5105773;28;20019;-54
2023/05/25 11:03:42;;;;;;;17.35;8.38;;;19.80;99.90;;;;;;5109199;28;20099;-59
2023/05/25 11:06:12;;;;;;;22.08;10.27;;;19.90;99.90;;;;;;5109391;28;20441;-56
2023/05/25 11:09:03;;;;;;;17.58;8.77;;;19.90;99.90;;;;;;5111634;28;20035;-53
2023/05/25 11:11:46;;;;;;;20.13;9.48;;;19.70;99.90;;;;;;5103645;28;20725;-53
2023/05/25 11:14:30;;;;;;;22.00;8.77;;;19.50;99.90;;;;;;5106881;28;20470;-57
2023/05/25 11:17:10;;;;;;;18.00;10.18;;;19.20;99.90;;;;;;5108518;28;20043;-59
2023/05/25 11:19:47;;;;;;;19.83;9.35;;;19.50;99.90;;;;;;5102118;28;20305;-60
2023/05/25 11:22:15;;;;;;;20.13;8.73;;;19.50;99.90;;;;;;5109070;28;20617;-57
2023/05/25 11:24:43;;;;;;;21.80;9.27;;;19.20;99.90;;;;;;5108245;28;20030;-60
2023/05/25 11:27:10;;;;;;;22.15;9.52;;;19.30;99.90;;;;;;5108146;28;20023;-57
2023/05/25 11:29:36;;;;;;;23.27;9.70;;;19.50;99.90;;;;;;5107008;28;20076;-56
2023/05/25 11:32:02;;;;;;;23.42;10.60;;;19.30;99.90;;;;;;5104666;28;20028;-58
2023/05/25 11:34:30;;;;;;;16.48;8.95;;;19.00;99.90;;;;;;5110130;28;20057;-55
2023/05/25 11:37:00;;;;;;;23.45;10.90;;;19.20;99.90;;;;;;5111620;28;20011;-56
2023/05/25 11:39:27;;;;;;;20.15;10.63;;;19.20;99.90;;;;;;5106136;28;20047;-57
2023/05/25 11:41:55;;;;;;;19.50;11.18;;;19.30;99.90;;;;;;5106202;28;20027;-56
2023/05/25 11:44:28;;;;;;;19.85;10.23;;;19.40;99.90;;;;;;5104460;28;20095;-59
2023/05/25 11:47:00;;;;;;;19.52;8.55;;;19.20;99.90;;;;;;5107860;28;20124;-58
2023/05/25 11:49:26;;;;;;;21.13;8.77;;;19.60;99.90;;;;;;5105067;28;20170;-57
2023/05/25 11:51:53;;;;;;;16.63;8.88;;;20.10;99.90;;;;;;5105668;28;20023;-57
2023/05/25 11:54:27;;;;;;;18.33;9.55;;;20.20;99.90;;;;;;5107774;28;20163;-57
2023/05/25 11:56:57;;;;;;;;;;;19.80;99.90;;;;;;5108932;28;20517;-57
2023/05/25 11:59:24;;;;;;;14.73;7.60;;;19.80;99.90;;;;;;5104966;27;19911;-57
2023/05/25 12:02:02;;;;;;;16.73;8.50;;;19.50;99.90;;;;;;5107009;28;20576;-59
2023/05/25 12:04:29;;;;;;;14.35;8.82;;;19.20;99.90;;;;;;5106175;28;20031;-59
2023/05/25 12:07:05;;;;;;;12.57;6.80;;;18.80;99.90;;;;;;5109018;28;20032;-60
2023/05/25 12:09:31;;;;;;;15.32;8.38;;;19.20;99.90;;;;;;5106101;28;20039;-56
2023/05/25 12:11:58;;;;;;;16.73;7.93;;;19.80;99.90;;;;;;5108730;27;20031;-60
2023/05/25 12:14:24;;;;;;;17.85;7.82;;;20.00;99.90;;;;;;5109015;28;20020;-59
2023/05/25 12:16:50;;;;;;;16.33;6.97;;;19.80;99.90;;;;;;5102761;28;20023;-58
2023/05/25 12:19:16;;;;;;;14.57;7.95;;;20.00;99.90;;;;;;5107426;28;20028;-58
2023/05/25 12:21:42;;;;;;;17.05;9.20;;;19.90;99.90;;;;;;5109987;27;20062;-58
2023/05/25 12:24:13;;;;;;;25.65;9.63;;;19.60;99.90;;;;;;5106352;28;20458;-61
2023/05/25 12:26:49;;;;;;;17.85;10.63;;;19.70;99.90;;;;;;5105695;28;20513;-60
2023/05/25 12:29:15;;;;;;;21.38;10.32;;;19.60;99.90;;;;;;5105216;28;20040;-61
2023/05/25 12:31:41;;;;;;;15.48;9.68;;;19.50;99.90;;;;;;5104423;28;20027;-60
2023/05/25 12:34:11;;;;;;;16.85;9.05;;;19.80;99.90;;;;;;5107087;28;20027;-60
2023/05/25 12:36:50;;;;;;;27.08;9.75;;;20.10;99.90;;;;;;5106809;28;20136;-59